createdAt,value
2017-10-05T00:02:21.283Z,16.60
2017-10-05T00:04:47.905Z,12.10
2017-10-05T00:07:14.539Z,8.47
2017-10-05T00:09:41.179Z,5.83
2017-10-05T00:12:07.822Z,9.57
2017-10-05T00:14:34.442Z,7.40
2017-10-05T00:17:01.052Z,20.40
2017-10-05T00:19:27.696Z,13.33
2017-10-05T00:21:54.300Z,8.97
2017-10-05T00:24:20.914Z,8.83
2017-10-05T00:26:47.562Z,11.90
2017-10-05T00:29:14.175Z,6.00
2017-10-05T00:31:40.828Z,8.83
2017-10-05T00:34:07.480Z,17.50
2017-10-05T00:36:34.115Z,12.53
2017-10-05T00:39:01.023Z,8.70
2017-10-05T00:41:27.648Z,4.90
2017-10-05T00:43:54.274Z,10.37
2017-10-05T00:46:20.914Z,9.20
2017-10-05T00:48:47.541Z,9.37
2017-10-05T00:51:14.155Z,6.30
2017-10-05T00:53:40.813Z,10.00
2017-10-05T00:56:07.427Z,8.30
2017-10-05T00:58:34.054Z,12.43
2017-10-05T01:01:00.659Z,9.87
2017-10-05T01:03:27.298Z,8.47
2017-10-05T01:05:53.918Z,14.10
2017-10-05T01:08:20.542Z,10.27
2017-10-05T01:10:47.202Z,14.93
2017-10-05T01:13:13.818Z,7.93
2017-10-05T01:15:40.477Z,12.97
2017-10-05T01:18:07.098Z,12.10
2017-10-05T01:20:33.727Z,8.33
2017-10-05T01:23:00.387Z,15.33
2017-10-05T01:25:27.007Z,13.00
2017-10-05T01:27:53.632Z,10.93
2017-10-05T01:30:20.274Z,10.67
2017-10-05T01:32:46.884Z,8.07
2017-10-05T01:35:13.511Z,14.20
2017-10-05T01:37:40.131Z,7.50
2017-10-05T01:40:06.768Z,9.63
2017-10-05T01:42:33.375Z,15.00
2017-10-05T01:45:00.016Z,7.23
2017-10-05T01:47:26.642Z,10.60
2017-10-05T01:49:53.258Z,9.63
2017-10-05T01:52:19.898Z,14.37
2017-10-05T01:54:46.525Z,13.80
2017-10-05T01:57:13.138Z,10.17
2017-10-05T01:59:39.771Z,11.87
2017-10-05T02:02:06.406Z,12.03
2017-10-05T02:04:33.017Z,9.43
2017-10-05T02:06:59.666Z,9.20
2017-10-05T02:09:26.292Z,6.90
2017-10-05T02:11:52.902Z,12.20
2017-10-05T02:14:19.530Z,22.13
2017-10-05T02:16:46.145Z,14.40
2017-10-05T02:19:12.769Z,21.53
2017-10-05T02:21:39.383Z,14.50
2017-10-05T02:24:05.986Z,6.73
2017-10-05T02:26:32.618Z,10.40
2017-10-05T02:28:59.286Z,13.53
2017-10-05T02:31:25.906Z,25.40
2017-10-05T02:33:52.552Z,13.20
2017-10-05T02:36:19.171Z,9.63
2017-10-05T02:38:45.811Z,9.37
2017-10-05T02:41:12.418Z,16.83
2017-10-05T02:43:39.062Z,11.37
2017-10-05T02:46:05.688Z,17.33
2017-10-05T02:48:32.310Z,8.27
2017-10-05T02:50:58.982Z,10.37
2017-10-05T02:53:25.615Z,9.33
2017-10-05T02:55:52.243Z,11.60
2017-10-05T02:58:18.883Z,18.47
2017-10-05T03:00:45.504Z,13.33
2017-10-05T03:03:12.166Z,8.20
2017-10-05T03:05:38.788Z,12.30
2017-10-05T03:08:05.394Z,13.33
2017-10-05T03:10:32.026Z,13.77
2017-10-05T03:12:58.635Z,12.03
2017-10-05T03:15:25.267Z,14.30
2017-10-05T03:17:51.921Z,13.10
2017-10-05T03:20:18.531Z,8.80
2017-10-05T03:22:45.158Z,14.00
2017-10-05T03:25:11.783Z,9.13
2017-10-05T03:27:38.403Z,12.43
2017-10-05T03:30:05.045Z,11.90
2017-10-05T03:32:31.658Z,9.10
2017-10-05T03:34:58.314Z,10.37
2017-10-05T03:37:24.987Z,11.57
2017-10-05T03:39:51.587Z,11.10
2017-10-05T03:42:18.247Z,13.87
2017-10-05T03:44:44.867Z,11.07
2017-10-05T03:47:11.511Z,8.63
2017-10-05T03:49:38.140Z,9.50
2017-10-05T03:52:04.790Z,14.90
2017-10-05T03:54:31.441Z,9.23
2017-10-05T03:56:58.059Z,9.83
2017-10-05T03:59:24.716Z,15.50
2017-10-05T04:01:51.323Z,16.47
2017-10-05T04:04:17.963Z,9.90
2017-10-05T04:06:44.592Z,13.40
2017-10-05T04:09:11.219Z,9.20
2017-10-05T04:11:37.871Z,13.43
2017-10-05T04:14:04.503Z,13.90
2017-10-05T04:16:31.133Z,17.10
2017-10-05T04:18:57.768Z,18.60
2017-10-05T04:21:24.390Z,13.03
2017-10-05T04:23:51.125Z,10.43
2017-10-05T04:26:17.735Z,18.87
2017-10-05T04:28:44.371Z,23.30
2017-10-05T04:31:10.994Z,22.37
2017-10-05T04:33:37.635Z,13.93
2017-10-05T04:36:04.250Z,22.03
2017-10-05T04:38:30.892Z,13.23
2017-10-05T04:40:57.532Z,12.63
2017-10-05T04:43:24.184Z,30.33
2017-10-05T04:45:50.835Z,24.47
2017-10-05T04:48:17.458Z,22.47
2017-10-05T04:50:44.106Z,19.93
2017-10-05T04:53:10.719Z,18.63
2017-10-05T04:55:37.334Z,21.97
2017-10-05T04:58:03.960Z,23.30
2017-10-05T05:00:30.594Z,18.47
2017-10-05T05:02:57.215Z,19.80
2017-10-05T05:05:23.854Z,26.07
2017-10-05T05:07:50.491Z,20.30
2017-10-05T05:10:17.160Z,18.53
2017-10-05T05:12:44.089Z,19.83
2017-10-05T05:15:10.720Z,18.87
2017-10-05T05:17:37.360Z,20.40
2017-10-05T05:20:03.995Z,18.67
2017-10-05T05:22:30.626Z,20.97
2017-10-05T05:24:57.287Z,32.97
2017-10-05T05:27:23.926Z,27.07
2017-10-05T05:29:50.548Z,22.57
2017-10-05T05:32:17.163Z,29.80
2017-10-05T05:34:43.808Z,28.33
2017-10-05T05:37:10.471Z,21.17
2017-10-05T05:39:37.094Z,29.03
2017-10-05T05:42:03.715Z,24.53
2017-10-05T05:44:30.386Z,28.83
2017-10-05T05:46:57.014Z,22.30
2017-10-05T05:49:23.651Z,31.10
2017-10-05T05:51:50.274Z,24.00
2017-10-05T05:54:16.890Z,19.17
2017-10-05T05:56:43.512Z,17.73
2017-10-05T05:59:10.147Z,27.83
2017-10-05T06:01:36.774Z,24.23
2017-10-05T06:04:03.422Z,24.37
2017-10-05T06:06:30.073Z,25.63
2017-10-05T06:08:56.694Z,26.47
2017-10-05T06:11:23.357Z,23.80
2017-10-05T06:13:49.970Z,26.03
2017-10-05T06:16:16.605Z,21.60
2017-10-05T06:18:43.219Z,21.43
2017-10-05T06:21:09.869Z,21.37
2017-10-05T06:23:36.485Z,39.33
2017-10-05T06:26:03.143Z,45.87
2017-10-05T06:28:29.769Z,39.43
2017-10-05T06:30:56.383Z,25.93
2017-10-05T06:33:23.020Z,34.47
2017-10-05T06:35:49.631Z,29.60
2017-10-05T06:38:16.270Z,25.77
2017-10-05T06:40:42.910Z,30.13
2017-10-05T06:43:09.547Z,22.27
2017-10-05T06:45:36.155Z,26.73
2017-10-05T06:48:02.797Z,26.13
2017-10-05T06:50:29.459Z,27.47
2017-10-05T06:52:56.083Z,41.53
2017-10-05T06:55:22.718Z,31.47
2017-10-05T06:57:49.356Z,46.37
2017-10-05T07:00:15.972Z,28.50
2017-10-05T07:02:42.619Z,31.47
2017-10-05T07:05:09.263Z,27.03
2017-10-05T07:07:35.902Z,34.53
2017-10-05T07:10:02.553Z,27.37
2017-10-05T07:12:29.180Z,42.33
2017-10-05T07:14:55.815Z,23.63
2017-10-05T07:17:22.489Z,28.43
2017-10-05T07:19:49.113Z,28.60
2017-10-05T07:22:15.741Z,24.67
2017-10-05T07:24:42.351Z,31.40
2017-10-05T07:27:09.006Z,34.37
2017-10-05T07:29:35.630Z,34.27
2017-10-05T07:32:02.247Z,33.40
2017-10-05T07:34:28.882Z,27.10
2017-10-05T07:36:55.512Z,30.77
2017-10-05T07:39:22.175Z,31.13
2017-10-05T07:41:48.802Z,31.43
2017-10-05T07:44:15.442Z,23.87
2017-10-05T07:46:42.078Z,24.07
2017-10-05T07:49:08.736Z,27.10
2017-10-05T07:51:35.368Z,28.57
2017-10-05T07:54:02.007Z,33.20
2017-10-05T07:56:28.654Z,28.43
2017-10-05T07:58:55.294Z,32.33
2017-10-05T08:01:21.926Z,29.17
2017-10-05T08:03:48.579Z,30.13
2017-10-05T08:06:15.192Z,27.80
2017-10-05T08:08:41.827Z,28.50
2017-10-05T08:11:08.452Z,20.90
2017-10-05T08:13:35.078Z,22.03
2017-10-05T08:16:01.723Z,23.07
2017-10-05T08:18:28.352Z,23.37
2017-10-05T08:20:54.987Z,21.07
2017-10-05T08:23:21.603Z,25.13
2017-10-05T08:25:48.235Z,20.33
2017-10-05T08:28:14.907Z,22.80
2017-10-05T08:30:41.527Z,18.23
2017-10-05T08:33:08.147Z,26.87
2017-10-05T08:35:34.784Z,20.77
2017-10-05T08:38:01.457Z,30.33
2017-10-05T08:40:28.083Z,18.60
2017-10-05T08:45:52.497Z,14.60
2017-10-05T08:48:19.155Z,13.20
2017-10-05T08:50:45.802Z,12.20
2017-10-05T08:53:12.426Z,14.23
2017-10-05T08:55:39.046Z,19.70
2017-10-05T08:58:05.681Z,30.03
2017-10-05T09:00:32.285Z,13.50
2017-10-05T09:02:58.920Z,18.43
2017-10-05T09:05:25.530Z,10.07
2017-10-05T09:07:52.166Z,12.70
2017-10-05T09:10:18.791Z,18.10
2017-10-05T09:12:45.475Z,11.00
2017-10-05T09:15:12.088Z,11.53
2017-10-05T09:17:38.749Z,10.53
2017-10-05T09:20:05.407Z,16.43
2017-10-05T09:22:32.041Z,15.53
2017-10-05T09:24:58.671Z,8.87
2017-10-05T09:27:25.285Z,9.23
2017-10-05T09:29:51.919Z,5.67
2017-10-05T09:32:18.559Z,8.73
2017-10-05T09:34:45.167Z,7.03
2017-10-05T09:37:11.795Z,7.60
2017-10-05T09:39:38.420Z,5.73
2017-10-05T09:42:05.082Z,5.23
2017-10-05T09:44:31.741Z,9.73
2017-10-05T09:46:58.385Z,6.97
2017-10-05T09:49:25.115Z,9.60
2017-10-05T09:51:51.756Z,3.93
2017-10-05T09:54:18.387Z,5.57
2017-10-05T09:56:45.038Z,4.10
2017-10-05T09:59:11.679Z,6.00
2017-10-05T10:01:38.299Z,5.60
2017-10-05T10:04:05.018Z,7.07
2017-10-05T10:06:31.635Z,7.60
2017-10-05T10:08:58.295Z,7.50
2017-10-05T10:11:24.923Z,5.47
2017-10-05T10:13:51.570Z,27.37
2017-10-05T10:16:18.291Z,20.40
2017-10-05T10:18:44.924Z,26.33
2017-10-05T10:21:11.559Z,24.80
2017-10-05T10:23:38.183Z,20.63
2017-10-05T10:26:04.819Z,30.87
2017-10-05T10:28:31.454Z,23.17
2017-10-05T10:30:58.103Z,31.83
2017-10-05T10:33:24.743Z,27.73
2017-10-05T10:35:51.368Z,27.97
2017-10-05T10:38:17.996Z,30.33
2017-10-05T10:40:44.643Z,21.53
2017-10-05T10:43:11.274Z,27.83
2017-10-05T10:45:37.908Z,17.63
2017-10-05T10:48:04.546Z,12.77
2017-10-05T10:50:31.191Z,19.70
2017-10-05T10:52:57.805Z,13.77
2017-10-05T10:55:24.436Z,15.93
2017-10-05T10:57:51.090Z,21.67
2017-10-05T11:00:17.723Z,19.07
2017-10-05T11:02:44.379Z,13.10
2017-10-05T11:05:11.036Z,13.17
2017-10-05T11:07:37.667Z,10.13
2017-10-05T11:10:04.278Z,11.83
2017-10-05T11:12:30.943Z,12.73
2017-10-05T11:14:57.531Z,6.47
2017-10-05T11:17:24.143Z,11.73
2017-10-05T11:19:50.817Z,11.30
2017-10-05T11:22:17.459Z,10.93
2017-10-05T11:24:44.108Z,10.60
2017-10-05T11:27:10.734Z,13.43
2017-10-05T11:29:37.354Z,13.57
2017-10-05T11:32:03.991Z,20.03
2017-10-05T11:34:30.602Z,10.23
2017-10-05T11:36:57.239Z,6.70
2017-10-05T11:39:23.900Z,12.63
2017-10-05T11:41:50.527Z,8.83
2017-10-05T11:44:17.151Z,14.63
2017-10-05T11:46:43.788Z,7.77
2017-10-05T11:49:10.489Z,11.17
2017-10-05T11:51:37.133Z,13.40
2017-10-05T11:54:03.777Z,3.03
2017-10-05T11:56:30.430Z,5.23
2017-10-05T11:58:57.054Z,3.87
2017-10-05T12:01:23.719Z,5.37
2017-10-05T12:03:50.359Z,5.93
2017-10-05T12:06:16.987Z,5.80
2017-10-05T12:08:43.624Z,7.20
2017-10-05T12:11:10.235Z,10.80
2017-10-05T12:13:36.870Z,10.53
2017-10-05T12:16:03.528Z,12.30
2017-10-05T12:18:30.162Z,6.73
2017-10-05T12:20:57.650Z,5.20
2017-10-05T12:23:24.325Z,3.70
2017-10-05T12:25:50.979Z,13.40
2017-10-05T12:28:17.680Z,8.83
2017-10-05T12:30:44.383Z,12.87
2017-10-05T12:33:10.999Z,5.87
2017-10-05T12:35:37.944Z,6.20
2017-10-05T12:38:04.570Z,8.23
2017-10-05T12:40:31.194Z,4.63
2017-10-05T12:42:57.837Z,9.20
2017-10-05T12:45:24.478Z,10.33
2017-10-05T12:47:51.463Z,11.70
2017-10-05T12:50:18.129Z,10.50
2017-10-05T12:52:44.769Z,9.07
2017-10-05T12:55:11.388Z,5.90
2017-10-05T12:57:38.018Z,11.73
2017-10-05T13:00:04.659Z,6.63
2017-10-05T13:02:31.637Z,4.00
2017-10-05T13:04:58.272Z,5.63
2017-10-05T13:07:24.889Z,5.33
2017-10-05T13:09:51.535Z,5.60
2017-10-05T13:12:18.199Z,3.53
2017-10-05T13:14:44.831Z,8.00
2017-10-05T13:17:11.476Z,5.43
2017-10-05T13:19:38.114Z,10.30
2017-10-05T13:22:04.746Z,7.97
2017-10-05T13:24:31.372Z,9.73
2017-10-05T13:26:58.032Z,4.23
2017-10-05T13:29:24.639Z,1.63
2017-10-05T13:31:51.279Z,10.00
2017-10-05T13:34:18.028Z,11.53
2017-10-05T13:36:44.832Z,4.70
2017-10-05T13:39:11.455Z,2.30
2017-10-05T13:41:38.100Z,7.40
2017-10-05T13:44:04.742Z,3.07
2017-10-05T13:46:31.367Z,7.57
2017-10-05T13:48:58.006Z,5.90
2017-10-05T13:51:24.627Z,4.20
2017-10-05T13:53:51.237Z,10.80
2017-10-05T13:56:17.873Z,11.60
2017-10-05T13:58:44.478Z,7.20
2017-10-05T14:01:11.140Z,10.30
2017-10-05T14:03:37.789Z,10.70
2017-10-05T14:06:04.431Z,7.17
2017-10-05T14:08:31.082Z,5.63
2017-10-05T14:10:57.703Z,5.20
2017-10-05T14:13:24.380Z,19.50
2017-10-05T14:15:51.027Z,7.90
2017-10-05T14:18:17.664Z,13.93
2017-10-05T14:20:44.282Z,9.23
2017-10-05T14:23:10.919Z,13.17
2017-10-05T14:25:37.589Z,20.33
2017-10-05T14:28:04.231Z,12.10
2017-10-05T14:30:30.863Z,11.93
2017-10-05T14:32:57.468Z,9.10
2017-10-05T14:35:24.080Z,6.23
2017-10-05T14:37:50.751Z,11.20
2017-10-05T14:40:17.385Z,17.33
2017-10-05T14:42:44.005Z,8.13
2017-10-05T14:45:11.027Z,7.27
2017-10-05T14:47:37.673Z,10.50
2017-10-05T14:50:04.332Z,11.73
2017-10-05T14:52:30.948Z,4.67
2017-10-05T14:54:57.586Z,11.10
2017-10-05T14:57:24.221Z,8.80
2017-10-05T14:59:50.844Z,8.80
2017-10-05T15:02:17.475Z,17.70
2017-10-05T15:04:44.091Z,4.40
2017-10-05T15:07:10.736Z,11.83
2017-10-05T15:09:37.394Z,10.63
2017-10-05T15:12:04.007Z,7.00
2017-10-05T15:14:30.660Z,13.47
2017-10-05T15:16:57.301Z,14.30
2017-10-05T15:19:23.937Z,12.93
2017-10-05T15:21:50.574Z,21.30
2017-10-05T15:24:17.193Z,7.30
2017-10-05T15:26:43.826Z,9.50
2017-10-05T15:29:10.443Z,13.10
2017-10-05T15:31:37.074Z,15.07
2017-10-05T15:34:03.708Z,21.27
2017-10-05T15:36:30.356Z,13.80
2017-10-05T15:38:57.332Z,13.60
2017-10-05T15:41:24.011Z,12.70
2017-10-05T15:43:50.627Z,8.20
2017-10-05T15:46:17.266Z,11.83
2017-10-05T15:48:43.944Z,19.13
2017-10-05T15:51:10.603Z,14.33
2017-10-05T15:53:37.252Z,8.63
2017-10-05T15:56:03.867Z,11.33
2017-10-05T15:58:30.512Z,15.50
2017-10-05T16:00:57.159Z,6.90
2017-10-05T16:03:23.797Z,7.83
2017-10-05T16:05:50.420Z,9.83
2017-10-05T16:08:17.051Z,11.80
2017-10-05T16:10:43.675Z,9.77
2017-10-05T16:13:10.321Z,7.47
2017-10-05T16:15:36.943Z,6.57
2017-10-05T16:18:03.585Z,12.03
2017-10-05T16:20:30.194Z,9.33
2017-10-05T16:22:56.823Z,9.60
2017-10-05T16:25:23.456Z,10.93
2017-10-05T16:27:50.071Z,10.10
2017-10-05T16:30:16.718Z,14.57
2017-10-05T16:32:43.358Z,12.60
2017-10-05T16:35:09.998Z,13.93
2017-10-05T16:37:36.650Z,9.80
2017-10-05T16:40:03.314Z,15.37
2017-10-05T16:42:29.930Z,10.70
2017-10-05T16:44:56.550Z,17.50
2017-10-05T16:47:23.198Z,18.17
2017-10-05T16:49:49.835Z,16.90
2017-10-05T16:52:16.439Z,21.10
2017-10-05T16:54:43.075Z,11.13
2017-10-05T16:57:09.719Z,11.30
2017-10-05T16:59:36.331Z,8.00
2017-10-05T17:02:02.975Z,17.40
2017-10-05T17:04:29.663Z,20.50
2017-10-05T17:06:56.343Z,15.23
2017-10-05T17:09:22.982Z,21.60
2017-10-05T17:11:49.607Z,20.50
2017-10-05T17:14:16.237Z,25.37
2017-10-05T17:16:42.855Z,30.23
2017-10-05T17:19:09.464Z,8.00
2017-10-05T17:21:36.107Z,15.27
2017-10-05T17:24:02.722Z,19.40
2017-10-05T17:26:29.347Z,19.73
2017-10-05T17:28:55.997Z,24.10
2017-10-05T17:31:22.592Z,17.17
2017-10-05T17:33:49.252Z,23.47
2017-10-05T17:36:15.918Z,23.77
2017-10-05T17:38:42.522Z,12.43
2017-10-05T17:41:09.171Z,12.53
2017-10-05T17:43:35.811Z,16.50
2017-10-05T17:46:02.475Z,18.90
2017-10-05T17:48:29.120Z,14.73
2017-10-05T17:50:55.750Z,24.90
2017-10-05T17:53:22.398Z,23.50
2017-10-05T17:55:49.043Z,18.13
2017-10-05T17:58:15.683Z,26.80
2017-10-05T18:00:42.349Z,27.30
2017-10-05T18:03:10.095Z,32.57
2017-10-05T18:05:36.748Z,23.90
2017-10-05T18:08:03.399Z,26.27
2017-10-05T18:10:30.058Z,34.70
2017-10-05T18:12:56.696Z,29.33
2017-10-05T18:15:23.358Z,24.50
2017-10-05T18:17:50.132Z,18.50
2017-10-05T18:20:16.760Z,25.27
2017-10-05T18:22:43.390Z,17.60
2017-10-05T18:25:10.036Z,19.00
2017-10-05T18:27:36.681Z,27.47
2017-10-05T18:30:03.332Z,30.70
2017-10-05T18:32:29.963Z,34.67
2017-10-05T18:34:56.579Z,18.03
2017-10-05T18:37:23.251Z,11.30
2017-10-05T18:39:50.849Z,18.00
2017-10-05T18:42:17.491Z,19.47
2017-10-05T18:44:44.100Z,16.73
2017-10-05T18:47:10.769Z,12.63
2017-10-05T18:49:37.433Z,21.90
2017-10-05T18:52:04.082Z,23.33
2017-10-05T18:54:30.709Z,23.17
2017-10-05T18:56:57.376Z,16.07
2017-10-05T18:59:24.012Z,20.13
2017-10-05T19:01:50.636Z,19.80
2017-10-05T19:04:17.271Z,18.10
2017-10-05T19:06:43.920Z,13.27
2017-10-05T19:09:10.584Z,8.87
2017-10-05T19:11:37.223Z,9.03
2017-10-05T19:14:03.864Z,18.57
2017-10-05T19:16:30.521Z,19.00
2017-10-05T19:18:57.187Z,19.53
2017-10-05T19:21:23.801Z,17.90
2017-10-05T19:23:50.468Z,15.13
2017-10-05T19:26:17.098Z,9.60
2017-10-05T19:28:43.721Z,13.00
2017-10-05T19:31:10.405Z,19.77
2017-10-05T19:33:37.040Z,12.40
2017-10-05T19:36:03.701Z,12.30
2017-10-05T19:38:30.350Z,20.00
2017-10-05T19:40:56.977Z,14.90
2017-10-05T19:43:23.644Z,12.33
2017-10-05T19:45:50.264Z,9.97
2017-10-05T19:48:16.900Z,9.87
2017-10-05T19:50:43.541Z,7.00
2017-10-05T19:53:10.153Z,9.97
2017-10-05T19:55:36.809Z,10.30
2017-10-05T19:58:03.432Z,11.73
2017-10-05T20:00:30.057Z,7.07
2017-10-05T20:02:56.724Z,17.37
2017-10-05T20:05:23.360Z,17.87
2017-10-05T20:07:50.038Z,11.30
2017-10-05T20:10:16.656Z,13.63
2017-10-05T20:12:43.333Z,20.17
2017-10-05T20:15:27.556Z,15.17
2017-10-05T20:17:57.830Z,8.73
2017-10-05T20:20:38.236Z,11.70
2017-10-05T20:23:19.751Z,12.97
2017-10-05T20:26:03.136Z,11.90
2017-10-05T20:28:35.661Z,9.50
2017-10-05T20:31:18.159Z,13.97
2017-10-05T20:33:44.828Z,13.10
2017-10-05T20:36:11.468Z,9.03
2017-10-05T20:38:38.093Z,20.00
2017-10-05T20:41:04.743Z,14.37
2017-10-05T20:43:31.379Z,17.60
2017-10-05T20:45:58.023Z,11.33
2017-10-05T20:48:24.662Z,11.03
2017-10-05T20:50:51.312Z,9.13
2017-10-05T20:53:17.958Z,7.70
2017-10-05T20:55:44.588Z,13.33
2017-10-05T20:58:11.239Z,11.43
2017-10-05T21:00:37.900Z,17.57
2017-10-05T21:03:04.545Z,11.13
2017-10-05T21:05:31.196Z,11.93
2017-10-05T21:07:57.812Z,11.60
2017-10-05T21:10:24.451Z,8.67
2017-10-05T21:12:51.944Z,14.20
2017-10-05T21:15:18.596Z,10.83
2017-10-05T21:17:45.209Z,8.60
2017-10-05T21:20:11.868Z,19.00
2017-10-05T21:22:38.529Z,11.10
2017-10-05T21:25:05.180Z,15.53
2017-10-05T21:27:31.837Z,8.47
2017-10-05T21:29:58.440Z,7.47
2017-10-05T21:32:25.077Z,16.00
2017-10-05T21:34:51.717Z,23.57
2017-10-05T21:37:18.333Z,7.87
2017-10-05T21:39:44.996Z,10.53
2017-10-05T21:42:11.609Z,11.20
2017-10-05T21:44:38.251Z,11.47
2017-10-05T21:47:04.883Z,8.30
2017-10-05T21:49:31.530Z,11.03
2017-10-05T21:51:58.148Z,10.73
2017-10-05T21:54:24.810Z,9.43
2017-10-05T21:56:51.432Z,8.77
2017-10-05T21:59:18.064Z,11.03
2017-10-05T22:01:44.691Z,11.73
2017-10-05T22:04:11.364Z,9.00
2017-10-05T22:06:37.985Z,7.73
2017-10-05T22:09:04.625Z,7.20
2017-10-05T22:11:31.271Z,5.27
2017-10-05T22:13:57.870Z,5.00
2017-10-05T22:16:24.487Z,4.80
2017-10-05T22:18:51.129Z,19.47
2017-10-05T22:21:17.758Z,13.03
2017-10-05T22:23:44.383Z,8.23
2017-10-05T22:26:11.011Z,8.63
2017-10-05T22:28:37.626Z,4.37
2017-10-05T22:31:04.250Z,13.73
2017-10-05T22:33:30.889Z,5.03
2017-10-05T22:35:57.498Z,7.50
2017-10-05T22:38:24.142Z,12.07
2017-10-05T22:40:50.759Z,12.60
2017-10-05T22:43:17.386Z,4.17
2017-10-05T22:45:44.020Z,8.30
2017-10-05T22:48:10.630Z,12.40
2017-10-05T22:50:37.263Z,10.73
2017-10-05T22:53:03.894Z,7.60
2017-10-05T22:55:30.538Z,14.60
2017-10-05T22:57:57.162Z,4.40
2017-10-05T23:00:23.810Z,8.20
2017-10-05T23:02:50.462Z,7.67
2017-10-05T23:05:17.100Z,20.87
2017-10-05T23:07:43.724Z,11.50
2017-10-05T23:10:10.354Z,10.40
2017-10-05T23:12:36.994Z,12.03
2017-10-05T23:15:03.606Z,8.50
2017-10-05T23:17:30.228Z,14.23
2017-10-05T23:19:56.859Z,11.17
2017-10-05T23:22:23.482Z,5.90
2017-10-05T23:24:50.087Z,9.43
2017-10-05T23:27:16.749Z,5.73
2017-10-05T23:29:43.370Z,10.10
2017-10-05T23:32:10.008Z,7.23
2017-10-05T23:34:36.613Z,13.40
2017-10-05T23:37:03.250Z,10.73
2017-10-05T23:39:29.860Z,4.97
2017-10-05T23:41:56.485Z,4.93
2017-10-05T23:44:23.129Z,11.90
2017-10-05T23:46:49.727Z,7.03
2017-10-05T23:49:16.355Z,7.40
2017-10-05T23:51:42.999Z,6.50
2017-10-05T23:54:09.608Z,7.30
2017-10-05T23:56:36.232Z,5.10
2017-10-05T23:59:02.842Z,7.47
